sensor_id;sensor_type;location;lat;lon;timestamp;P1;durP1;ratioP1;P2;durP2;ratioP2
65863;SDS011;52639;51.180;20.460;2022-07-23T00:02:40;20.88;;;17.25;;
65863;SDS011;52639;51.180;20.460;2022-07-23T00:06:43;22.67;;;18.38;;
65863;SDS011;52639;51.180;20.460;2022-07-23T00:10:47;21.88;;;16.95;;
65863;SDS011;52639;51.180;20.460;2022-07-23T00:14:50;21.20;;;17.00;;
65863;SDS011;52639;51.180;20.460;2022-07-23T00:18:52;26.13;;;17.50;;
65863;SDS011;52639;51.180;20.460;2022-07-23T00:22:55;19.63;;;16.85;;
65863;SDS011;52639;51.180;20.460;2022-07-23T00:26:59;20.40;;;17.15;;
65863;SDS011;52639;51.180;20.460;2022-07-23T00:31:02;18.67;;;15.80;;
65863;SDS011;52639;51.180;20.460;2022-07-23T00:35:05;21.15;;;16.30;;
65863;SDS011;52639;51.180;20.460;2022-07-23T00:39:08;21.38;;;16.15;;
65863;SDS011;52639;51.180;20.460;2022-07-23T00:43:12;20.23;;;16.13;;
65863;SDS011;52639;51.180;20.460;2022-07-23T00:47:15;22.92;;;17.55;;
65863;SDS011;52639;51.180;20.460;2022-07-23T00:51:18;21.05;;;15.88;;
65863;SDS011;52639;51.180;20.460;2022-07-23T00:55:21;20.83;;;16.33;;
65863;SDS011;52639;51.180;20.460;2022-07-23T00:59:25;20.85;;;17.20;;
65863;SDS011;52639;51.180;20.460;2022-07-23T01:03:28;20.70;;;16.67;;
65863;SDS011;52639;51.180;20.460;2022-07-23T01:07:30;20.63;;;16.00;;
65863;SDS011;52639;51.180;20.460;2022-07-23T01:11:33;25.23;;;17.55;;
65863;SDS011;52639;51.180;20.460;2022-07-23T01:15:39;20.27;;;15.77;;
65863;SDS011;52639;51.180;20.460;2022-07-23T01:19:42;19.85;;;15.48;;
65863;SDS011;52639;51.180;20.460;2022-07-23T01:23:46;21.30;;;17.45;;
65863;SDS011;52639;51.180;20.460;2022-07-23T01:27:49;20.08;;;15.90;;
65863;SDS011;52639;51.180;20.460;2022-07-23T01:31:52;20.35;;;15.88;;
65863;SDS011;52639;51.180;20.460;2022-07-23T01:35:55;19.77;;;16.33;;
65863;SDS011;52639;51.180;20.460;2022-07-23T01:39:59;20.95;;;16.90;;
65863;SDS011;52639;51.180;20.460;2022-07-23T01:44:02;26.27;;;17.63;;
65863;SDS011;52639;51.180;20.460;2022-07-23T01:48:05;22.33;;;17.65;;
65863;SDS011;52639;51.180;20.460;2022-07-23T01:52:09;25.70;;;17.75;;
65863;SDS011;52639;51.180;20.460;2022-07-23T01:56:13;23.25;;;16.83;;
65863;SDS011;52639;51.180;20.460;2022-07-23T02:00:16;20.75;;;17.02;;
65863;SDS011;52639;51.180;20.460;2022-07-23T02:04:19;22.63;;;17.38;;
65863;SDS011;52639;51.180;20.460;2022-07-23T02:08:22;22.50;;;17.15;;
65863;SDS011;52639;51.180;20.460;2022-07-23T02:12:26;21.73;;;16.25;;
65863;SDS011;52639;51.180;20.460;2022-07-23T02:16:29;22.15;;;16.95;;
65863;SDS011;52639;51.180;20.460;2022-07-23T02:20:31;18.52;;;14.63;;
65863;SDS011;52639;51.180;20.460;2022-07-23T02:24:34;21.52;;;16.73;;
65863;SDS011;52639;51.180;20.460;2022-07-23T02:28:38;21.88;;;16.80;;
65863;SDS011;52639;51.180;20.460;2022-07-23T02:32:41;22.83;;;16.20;;
65863;SDS011;52639;51.180;20.460;2022-07-23T02:36:43;20.70;;;15.57;;
65863;SDS011;52639;51.180;20.460;2022-07-23T02:40:46;20.60;;;16.13;;
65863;SDS011;52639;51.180;20.460;2022-07-23T02:44:50;22.63;;;17.30;;
65863;SDS011;52639;51.180;20.460;2022-07-23T02:48:54;20.63;;;15.25;;
65863;SDS011;52639;51.180;20.460;2022-07-23T02:52:56;24.23;;;17.83;;
65863;SDS011;52639;51.180;20.460;2022-07-23T02:56:59;20.70;;;17.20;;
65863;SDS011;52639;51.180;20.460;2022-07-23T03:01:03;19.90;;;15.90;;
65863;SDS011;52639;51.180;20.460;2022-07-23T03:05:06;20.48;;;15.82;;
65863;SDS011;52639;51.180;20.460;2022-07-23T03:09:10;19.95;;;16.23;;
65863;SDS011;52639;51.180;20.460;2022-07-23T03:13:12;21.65;;;16.65;;
65863;SDS011;52639;51.180;20.460;2022-07-23T03:17:16;22.48;;;17.45;;
65863;SDS011;52639;51.180;20.460;2022-07-23T03:21:19;20.90;;;15.40;;
65863;SDS011;52639;51.180;20.460;2022-07-23T03:25:21;20.52;;;15.63;;
65863;SDS011;52639;51.180;20.460;2022-07-23T03:29:24;25.13;;;16.95;;
65863;SDS011;52639;51.180;20.460;2022-07-23T03:33:28;21.00;;;16.75;;
65863;SDS011;52639;51.180;20.460;2022-07-23T03:37:31;21.58;;;17.05;;
65863;SDS011;52639;51.180;20.460;2022-07-23T03:41:34;22.88;;;16.50;;
65863;SDS011;52639;51.180;20.460;2022-07-23T03:45:36;26.73;;;17.05;;
65863;SDS011;52639;51.180;20.460;2022-07-23T03:49:41;20.25;;;16.40;;
65863;SDS011;52639;51.180;20.460;2022-07-23T03:53:44;21.95;;;16.65;;
65863;SDS011;52639;51.180;20.460;2022-07-23T03:57:46;23.00;;;17.55;;
65863;SDS011;52639;51.180;20.460;2022-07-23T04:01:49;26.45;;;19.23;;
65863;SDS011;52639;51.180;20.460;2022-07-23T04:05:53;24.70;;;18.52;;
65863;SDS011;52639;51.180;20.460;2022-07-23T04:09:55;22.40;;;17.77;;
65863;SDS011;52639;51.180;20.460;2022-07-23T04:13:58;24.48;;;17.20;;
65863;SDS011;52639;51.180;20.460;2022-07-23T04:18:01;23.70;;;17.65;;
65863;SDS011;52639;51.180;20.460;2022-07-23T04:22:06;21.20;;;17.00;;
65863;SDS011;52639;51.180;20.460;2022-07-23T04:26:09;25.33;;;18.92;;
65863;SDS011;52639;51.180;20.460;2022-07-23T04:30:12;25.90;;;17.83;;
65863;SDS011;52639;51.180;20.460;2022-07-23T04:34:15;24.25;;;17.95;;
65863;SDS011;52639;51.180;20.460;2022-07-23T04:38:19;24.33;;;18.85;;
65863;SDS011;52639;51.180;20.460;2022-07-23T04:42:22;22.00;;;16.92;;
65863;SDS011;52639;51.180;20.460;2022-07-23T04:46:24;23.65;;;15.93;;
65863;SDS011;52639;51.180;20.460;2022-07-23T04:50:27;23.48;;;17.60;;
65863;SDS011;52639;51.180;20.460;2022-07-23T04:54:31;25.05;;;18.05;;
65863;SDS011;52639;51.180;20.460;2022-07-23T04:58:36;21.70;;;18.02;;
65863;SDS011;52639;51.180;20.460;2022-07-23T05:02:39;21.63;;;17.65;;
65863;SDS011;52639;51.180;20.460;2022-07-23T05:06:42;23.77;;;17.48;;
65863;SDS011;52639;51.180;20.460;2022-07-23T05:10:46;24.02;;;17.35;;
65863;SDS011;52639;51.180;20.460;2022-07-23T05:14:49;24.38;;;17.33;;
65863;SDS011;52639;51.180;20.460;2022-07-23T05:18:53;20.73;;;16.83;;
65863;SDS011;52639;51.180;20.460;2022-07-23T05:22:56;20.67;;;16.45;;
65863;SDS011;52639;51.180;20.460;2022-07-23T05:27:00;23.00;;;17.65;;
65863;SDS011;52639;51.180;20.460;2022-07-23T05:31:03;21.08;;;16.55;;
65863;SDS011;52639;51.180;20.460;2022-07-23T05:35:05;22.92;;;17.33;;
65863;SDS011;52639;51.180;20.460;2022-07-23T05:39:09;24.63;;;17.05;;
65863;SDS011;52639;51.180;20.460;2022-07-23T05:43:13;25.02;;;17.13;;
65863;SDS011;52639;51.180;20.460;2022-07-23T05:47:16;25.27;;;18.25;;
65863;SDS011;52639;51.180;20.460;2022-07-23T05:51:20;27.42;;;19.20;;
65863;SDS011;52639;51.180;20.460;2022-07-23T05:55:23;28.92;;;19.70;;
65863;SDS011;52639;51.180;20.460;2022-07-23T05:59:28;26.27;;;19.45;;
65863;SDS011;52639;51.180;20.460;2022-07-23T06:03:31;28.65;;;19.08;;
65863;SDS011;52639;51.180;20.460;2022-07-23T06:07:34;28.50;;;18.77;;
65863;SDS011;52639;51.180;20.460;2022-07-23T06:11:38;23.00;;;17.75;;
65863;SDS011;52639;51.180;20.460;2022-07-23T06:15:43;21.45;;;17.08;;
65863;SDS011;52639;51.180;20.460;2022-07-23T06:19:46;21.52;;;17.30;;
65863;SDS011;52639;51.180;20.460;2022-07-23T06:23:49;20.70;;;16.17;;
65863;SDS011;52639;51.180;20.460;2022-07-23T06:27:53;23.10;;;15.80;;
65863;SDS011;52639;51.180;20.460;2022-07-23T06:31:58;22.13;;;15.52;;
65863;SDS011;52639;51.180;20.460;2022-07-23T06:36:02;20.08;;;14.45;;
65863;SDS011;52639;51.180;20.460;2022-07-23T06:40:07;20.02;;;14.45;;
65863;SDS011;52639;51.180;20.460;2022-07-23T06:44:14;15.38;;;13.27;;
65863;SDS011;52639;51.180;20.460;2022-07-23T06:48:25;17.17;;;13.13;;
65863;SDS011;52639;51.180;20.460;2022-07-23T06:52:36;18.13;;;13.05;;
65863;SDS011;52639;51.180;20.460;2022-07-23T06:56:42;16.45;;;12.00;;
65863;SDS011;52639;51.180;20.460;2022-07-23T07:01:08;12.95;;;9.52;;
65863;SDS011;52639;51.180;20.460;2022-07-23T07:05:18;11.07;;;8.35;;
65863;SDS011;52639;51.180;20.460;2022-07-23T07:09:50;11.45;;;7.40;;
65863;SDS011;52639;51.180;20.460;2022-07-23T07:14:15;9.93;;;7.90;;
65863;SDS011;52639;51.180;20.460;2022-07-23T07:18:41;9.10;;;7.45;;
65863;SDS011;52639;51.180;20.460;2022-07-23T07:23:18;10.98;;;7.68;;
65863;SDS011;52639;51.180;20.460;2022-07-23T07:27:41;11.63;;;7.60;;
65863;SDS011;52639;51.180;20.460;2022-07-23T07:31:51;8.57;;;7.18;;
65863;SDS011;52639;51.180;20.460;2022-07-23T07:36:04;8.77;;;7.55;;
65863;SDS011;52639;51.180;20.460;2022-07-23T07:40:20;9.15;;;6.93;;
65863;SDS011;52639;51.180;20.460;2022-07-23T07:44:34;10.23;;;7.40;;
65863;SDS011;52639;51.180;20.460;2022-07-23T07:48:51;7.55;;;6.78;;
65863;SDS011;52639;51.180;20.460;2022-07-23T07:53:05;10.88;;;7.45;;
65863;SDS011;52639;51.180;20.460;2022-07-23T07:57:41;14.52;;;7.00;;
65863;SDS011;52639;51.180;20.460;2022-07-23T08:02:05;11.45;;;7.70;;
65863;SDS011;52639;51.180;20.460;2022-07-23T08:06:39;9.13;;;7.32;;
65863;SDS011;52639;51.180;20.460;2022-07-23T08:11:05;10.07;;;7.10;;
65863;SDS011;52639;51.180;20.460;2022-07-23T08:15:24;8.02;;;6.13;;
65863;SDS011;52639;51.180;20.460;2022-07-23T08:19:48;8.20;;;6.00;;
65863;SDS011;52639;51.180;20.460;2022-07-23T08:23:51;9.07;;;6.70;;
65863;SDS011;52639;51.180;20.460;2022-07-23T08:27:55;8.65;;;6.32;;
65863;SDS011;52639;51.180;20.460;2022-07-23T08:32:00;6.65;;;5.82;;
65863;SDS011;52639;51.180;20.460;2022-07-23T08:36:04;7.35;;;6.22;;
65863;SDS011;52639;51.180;20.460;2022-07-23T08:40:08;8.18;;;5.60;;
65863;SDS011;52639;51.180;20.460;2022-07-23T08:44:12;10.00;;;6.40;;
65863;SDS011;52639;51.180;20.460;2022-07-23T08:48:19;9.10;;;6.47;;
65863;SDS011;52639;51.180;20.460;2022-07-23T08:52:25;9.82;;;6.53;;
65863;SDS011;52639;51.180;20.460;2022-07-23T08:56:31;7.75;;;6.10;;
65863;SDS011;52639;51.180;20.460;2022-07-23T09:00:42;8.57;;;6.03;;
65863;SDS011;52639;51.180;20.460;2022-07-23T09:04:58;12.85;;;6.05;;
65863;SDS011;52639;51.180;20.460;2022-07-23T09:09:17;10.75;;;6.80;;
65863;SDS011;52639;51.180;20.460;2022-07-23T09:13:45;8.98;;;6.40;;
65863;SDS011;52639;51.180;20.460;2022-07-23T09:18:06;7.55;;;5.85;;
65863;SDS011;52639;51.180;20.460;2022-07-23T09:22:19;7.78;;;5.65;;
65863;SDS011;52639;51.180;20.460;2022-07-23T09:26:28;10.73;;;5.95;;
65863;SDS011;52639;51.180;20.460;2022-07-23T09:30:41;8.27;;;5.75;;
65863;SDS011;52639;51.180;20.460;2022-07-23T09:34:55;7.82;;;6.18;;
65863;SDS011;52639;51.180;20.460;2022-07-23T09:39:13;9.23;;;6.15;;
65863;SDS011;52639;51.180;20.460;2022-07-23T09:43:44;10.43;;;8.25;;
65863;SDS011;52639;51.180;20.460;2022-07-23T09:47:57;7.72;;;6.10;;
65863;SDS011;52639;51.180;20.460;2022-07-23T09:52:43;9.95;;;7.05;;
65863;SDS011;52639;51.180;20.460;2022-07-23T09:56:57;8.25;;;6.15;;
65863;SDS011;52639;51.180;20.460;2022-07-23T10:01:05;8.90;;;6.38;;
65863;SDS011;52639;51.180;20.460;2022-07-23T10:05:11;10.45;;;6.78;;
65863;SDS011;52639;51.180;20.460;2022-07-23T10:09:18;8.23;;;6.78;;
65863;SDS011;52639;51.180;20.460;2022-07-23T10:13:29;9.17;;;5.80;;
65863;SDS011;52639;51.180;20.460;2022-07-23T10:17:50;9.75;;;6.20;;
65863;SDS011;52639;51.180;20.460;2022-07-23T10:21:57;7.35;;;5.72;;
65863;SDS011;52639;51.180;20.460;2022-07-23T10:26:05;7.22;;;6.22;;
65863;SDS011;52639;51.180;20.460;2022-07-23T10:30:22;8.85;;;5.80;;
65863;SDS011;52639;51.180;20.460;2022-07-23T10:34:39;10.60;;;5.70;;
65863;SDS011;52639;51.180;20.460;2022-07-23T10:38:49;9.00;;;5.20;;
65863;SDS011;52639;51.180;20.460;2022-07-23T10:42:58;8.82;;;5.35;;
65863;SDS011;52639;51.180;20.460;2022-07-23T10:47:05;8.80;;;5.30;;
65863;SDS011;52639;51.180;20.460;2022-07-23T10:51:22;7.93;;;5.30;;
65863;SDS011;52639;51.180;20.460;2022-07-23T10:55:44;10.65;;;5.85;;
65863;SDS011;52639;51.180;20.460;2022-07-23T11:09:10;8.25;;;5.82;;
65863;SDS011;52639;51.180;20.460;2022-07-23T11:13:30;7.38;;;6.07;;
65863;SDS011;52639;51.180;20.460;2022-07-23T11:17:38;9.02;;;5.60;;
65863;SDS011;52639;51.180;20.460;2022-07-23T11:22:03;6.72;;;5.43;;
65863;SDS011;52639;51.180;20.460;2022-07-23T11:26:06;7.25;;;5.90;;
65863;SDS011;52639;51.180;20.460;2022-07-23T11:30:12;7.45;;;5.53;;
65863;SDS011;52639;51.180;20.460;2022-07-23T11:34:42;9.65;;;5.70;;
65863;SDS011;52639;51.180;20.460;2022-07-23T11:38:49;7.25;;;5.68;;
65863;SDS011;52639;51.180;20.460;2022-07-23T11:42:55;8.52;;;5.60;;
65863;SDS011;52639;51.180;20.460;2022-07-23T11:47:01;8.50;;;6.97;;
65863;SDS011;52639;51.180;20.460;2022-07-23T11:51:06;9.23;;;6.53;;
65863;SDS011;52639;51.180;20.460;2022-07-23T11:55:11;9.00;;;5.93;;
65863;SDS011;52639;51.180;20.460;2022-07-23T11:59:17;11.13;;;6.10;;
65863;SDS011;52639;51.180;20.460;2022-07-23T12:03:21;7.72;;;5.50;;
65863;SDS011;52639;51.180;20.460;2022-07-23T12:07:27;7.35;;;5.65;;
65863;SDS011;52639;51.180;20.460;2022-07-23T12:11:33;8.00;;;5.68;;
65863;SDS011;52639;51.180;20.460;2022-07-23T12:15:38;7.72;;;5.65;;
65863;SDS011;52639;51.180;20.460;2022-07-23T12:19:45;8.13;;;5.63;;
65863;SDS011;52639;51.180;20.460;2022-07-23T12:23:50;10.55;;;6.32;;
65863;SDS011;52639;51.180;20.460;2022-07-23T12:28:03;13.82;;;6.10;;
65863;SDS011;52639;51.180;20.460;2022-07-23T12:32:21;7.75;;;6.00;;
65863;SDS011;52639;51.180;20.460;2022-07-23T12:36:37;8.15;;;5.85;;
65863;SDS011;52639;51.180;20.460;2022-07-23T12:40:47;7.75;;;5.75;;
65863;SDS011;52639;51.180;20.460;2022-07-23T12:45:06;11.13;;;6.10;;
65863;SDS011;52639;51.180;20.460;2022-07-23T12:49:23;7.20;;;5.90;;
65863;SDS011;52639;51.180;20.460;2022-07-23T12:53:30;7.72;;;5.80;;
65863;SDS011;52639;51.180;20.460;2022-07-23T12:57:46;7.43;;;5.90;;
65863;SDS011;52639;51.180;20.460;2022-07-23T13:01:55;8.20;;;6.43;;
65863;SDS011;52639;51.180;20.460;2022-07-23T13:06:03;8.82;;;6.28;;
65863;SDS011;52639;51.180;20.460;2022-07-23T13:10:09;10.65;;;6.32;;
65863;SDS011;52639;51.180;20.460;2022-07-23T13:14:15;9.90;;;6.70;;
65863;SDS011;52639;51.180;20.460;2022-07-23T13:18:22;9.15;;;6.78;;
65863;SDS011;52639;51.180;20.460;2022-07-23T13:22:27;6.65;;;5.53;;
65863;SDS011;52639;51.180;20.460;2022-07-23T13:26:30;7.90;;;6.13;;
65863;SDS011;52639;51.180;20.460;2022-07-23T13:30:33;9.07;;;6.47;;
65863;SDS011;52639;51.180;20.460;2022-07-23T13:34:38;8.02;;;6.15;;
65863;SDS011;52639;51.180;20.460;2022-07-23T13:38:45;7.97;;;6.70;;
65863;SDS011;52639;51.180;20.460;2022-07-23T13:42:49;8.00;;;6.55;;
65863;SDS011;52639;51.180;20.460;2022-07-23T13:46:52;10.80;;;7.03;;
65863;SDS011;52639;51.180;20.460;2022-07-23T13:50:57;8.80;;;6.90;;
65863;SDS011;52639;51.180;20.460;2022-07-23T13:55:01;10.63;;;6.75;;
65863;SDS011;52639;51.180;20.460;2022-07-23T13:59:05;9.65;;;7.20;;
65863;SDS011;52639;51.180;20.460;2022-07-23T14:03:09;8.70;;;6.95;;
65863;SDS011;52639;51.180;20.460;2022-07-23T14:07:14;8.35;;;7.28;;
65863;SDS011;52639;51.180;20.460;2022-07-23T14:11:25;8.85;;;6.70;;
65863;SDS011;52639;51.180;20.460;2022-07-23T14:15:34;9.10;;;6.88;;
65863;SDS011;52639;51.180;20.460;2022-07-23T14:19:43;11.27;;;7.10;;
65863;SDS011;52639;51.180;20.460;2022-07-23T14:23:50;9.15;;;6.82;;
65863;SDS011;52639;51.180;20.460;2022-07-23T14:27:54;9.77;;;6.38;;
65863;SDS011;52639;51.180;20.460;2022-07-23T14:31:57;8.68;;;6.60;;
65863;SDS011;52639;51.180;20.460;2022-07-23T14:36:01;9.40;;;6.60;;
65863;SDS011;52639;51.180;20.460;2022-07-23T14:40:07;9.02;;;6.70;;
65863;SDS011;52639;51.180;20.460;2022-07-23T14:44:11;11.30;;;7.40;;
65863;SDS011;52639;51.180;20.460;2022-07-23T14:48:15;8.82;;;6.72;;
65863;SDS011;52639;51.180;20.460;2022-07-23T14:52:19;9.75;;;7.40;;
65863;SDS011;52639;51.180;20.460;2022-07-23T14:56:24;12.30;;;7.70;;
65863;SDS011;52639;51.180;20.460;2022-07-23T15:00:28;13.38;;;7.18;;
65863;SDS011;52639;51.180;20.460;2022-07-23T15:04:31;15.85;;;7.80;;
65863;SDS011;52639;51.180;20.460;2022-07-23T15:08:35;13.38;;;5.53;;
65863;SDS011;52639;51.180;20.460;2022-07-23T15:12:39;13.20;;;5.22;;
65863;SDS011;52639;51.180;20.460;2022-07-23T15:16:43;11.27;;;5.40;;
65863;SDS011;52639;51.180;20.460;2022-07-23T15:20:47;12.52;;;5.20;;
65863;SDS011;52639;51.180;20.460;2022-07-23T15:24:51;5.60;;;4.47;;
65863;SDS011;52639;51.180;20.460;2022-07-23T15:28:59;9.55;;;4.68;;
65863;SDS011;52639;51.180;20.460;2022-07-23T15:33:13;9.73;;;4.97;;
65863;SDS011;52639;51.180;20.460;2022-07-23T15:37:17;6.10;;;4.32;;
65863;SDS011;52639;51.180;20.460;2022-07-23T15:41:31;8.73;;;3.83;;
65863;SDS011;52639;51.180;20.460;2022-07-23T15:45:44;10.38;;;4.40;;
65863;SDS011;52639;51.180;20.460;2022-07-23T15:49:51;8.13;;;4.25;;
65863;SDS011;52639;51.180;20.460;2022-07-23T15:54:07;7.28;;;4.90;;
65863;SDS011;52639;51.180;20.460;2022-07-23T15:58:13;7.28;;;4.32;;
65863;SDS011;52639;51.180;20.460;2022-07-23T16:02:27;7.10;;;4.45;;
65863;SDS011;52639;51.180;20.460;2022-07-23T16:06:32;6.25;;;4.07;;
65863;SDS011;52639;51.180;20.460;2022-07-23T16:10:40;6.13;;;4.10;;
65863;SDS011;52639;51.180;20.460;2022-07-23T16:14:45;6.32;;;3.85;;
65863;SDS011;52639;51.180;20.460;2022-07-23T16:18:51;8.65;;;4.18;;
65863;SDS011;52639;51.180;20.460;2022-07-23T16:22:54;6.05;;;4.05;;
65863;SDS011;52639;51.180;20.460;2022-07-23T16:26:58;4.68;;;3.67;;
65863;SDS011;52639;51.180;20.460;2022-07-23T16:31:01;6.53;;;4.00;;
65863;SDS011;52639;51.180;20.460;2022-07-23T16:35:07;5.63;;;3.85;;
65863;SDS011;52639;51.180;20.460;2022-07-23T16:39:11;5.80;;;3.67;;
65863;SDS011;52639;51.180;20.460;2022-07-23T16:43:14;7.03;;;4.00;;
65863;SDS011;52639;51.180;20.460;2022-07-23T16:47:18;7.85;;;3.92;;
65863;SDS011;52639;51.180;20.460;2022-07-23T16:51:24;6.43;;;4.30;;
65863;SDS011;52639;51.180;20.460;2022-07-23T16:55:30;5.63;;;3.97;;
65863;SDS011;52639;51.180;20.460;2022-07-23T16:59:36;5.10;;;3.80;;
65863;SDS011;52639;51.180;20.460;2022-07-23T17:03:40;5.53;;;3.83;;
65863;SDS011;52639;51.180;20.460;2022-07-23T17:07:50;6.00;;;4.20;;
65863;SDS011;52639;51.180;20.460;2022-07-23T17:11:55;5.88;;;4.25;;
65863;SDS011;52639;51.180;20.460;2022-07-23T17:15:59;6.05;;;4.47;;
65863;SDS011;52639;51.180;20.460;2022-07-23T17:20:03;6.30;;;4.93;;
65863;SDS011;52639;51.180;20.460;2022-07-23T17:24:17;8.30;;;5.20;;
65863;SDS011;52639;51.180;20.460;2022-07-23T17:28:25;8.45;;;5.20;;
65863;SDS011;52639;51.180;20.460;2022-07-23T17:32:31;8.27;;;5.43;;
65863;SDS011;52639;51.180;20.460;2022-07-23T17:36:35;7.20;;;5.28;;
65863;SDS011;52639;51.180;20.460;2022-07-23T17:40:41;7.82;;;5.25;;
65863;SDS011;52639;51.180;20.460;2022-07-23T17:44:44;7.10;;;5.10;;
65863;SDS011;52639;51.180;20.460;2022-07-23T17:48:55;7.93;;;5.70;;
65863;SDS011;52639;51.180;20.460;2022-07-23T17:53:00;7.13;;;5.72;;
65863;SDS011;52639;51.180;20.460;2022-07-23T17:57:07;9.77;;;6.10;;
65863;SDS011;52639;51.180;20.460;2022-07-23T18:01:13;8.80;;;5.90;;
65863;SDS011;52639;51.180;20.460;2022-07-23T18:05:16;8.80;;;5.88;;
65863;SDS011;52639;51.180;20.460;2022-07-23T18:09:23;8.52;;;6.13;;
65863;SDS011;52639;51.180;20.460;2022-07-23T18:13:29;8.60;;;6.10;;
65863;SDS011;52639;51.180;20.460;2022-07-23T18:17:34;8.55;;;6.30;;
65863;SDS011;52639;51.180;20.460;2022-07-23T18:21:38;8.57;;;6.82;;
65863;SDS011;52639;51.180;20.460;2022-07-23T18:25:42;8.13;;;6.35;;
65863;SDS011;52639;51.180;20.460;2022-07-23T18:29:50;7.93;;;6.28;;
65863;SDS011;52639;51.180;20.460;2022-07-23T18:33:53;8.60;;;6.00;;
65863;SDS011;52639;51.180;20.460;2022-07-23T18:37:58;8.60;;;6.55;;
65863;SDS011;52639;51.180;20.460;2022-07-23T18:42:03;7.90;;;6.57;;
65863;SDS011;52639;51.180;20.460;2022-07-23T18:46:14;10.30;;;8.38;;
65863;SDS011;52639;51.180;20.460;2022-07-23T18:50:17;11.30;;;8.32;;
65863;SDS011;52639;51.180;20.460;2022-07-23T18:54:21;10.88;;;8.20;;
65863;SDS011;52639;51.180;20.460;2022-07-23T18:58:25;8.38;;;5.70;;
65863;SDS011;52639;51.180;20.460;2022-07-23T19:02:31;9.57;;;7.10;;
65863;SDS011;52639;51.180;20.460;2022-07-23T19:06:34;9.02;;;6.47;;
65863;SDS011;52639;51.180;20.460;2022-07-23T19:10:37;8.65;;;6.38;;
65863;SDS011;52639;51.180;20.460;2022-07-23T19:14:41;8.43;;;6.13;;
65863;SDS011;52639;51.180;20.460;2022-07-23T19:18:46;11.77;;;6.80;;
65863;SDS011;52639;51.180;20.460;2022-07-23T19:22:49;9.68;;;6.95;;
65863;SDS011;52639;51.180;20.460;2022-07-23T19:26:53;10.23;;;6.82;;
65863;SDS011;52639;51.180;20.460;2022-07-23T19:30:56;9.32;;;6.85;;
65863;SDS011;52639;51.180;20.460;2022-07-23T19:35:02;9.55;;;6.57;;
65863;SDS011;52639;51.180;20.460;2022-07-23T19:39:07;9.18;;;6.78;;
65863;SDS011;52639;51.180;20.460;2022-07-23T19:43:11;9.52;;;7.80;;
65863;SDS011;52639;51.180;20.460;2022-07-23T19:47:25;10.98;;;8.00;;
65863;SDS011;52639;51.180;20.460;2022-07-23T19:51:52;10.23;;;7.35;;
65863;SDS011;52639;51.180;20.460;2022-07-23T20:00:00;10.38;;;7.20;;
65863;SDS011;52639;51.180;20.460;2022-07-23T20:04:07;10.60;;;7.97;;
65863;SDS011;52639;51.180;20.460;2022-07-23T20:08:21;9.73;;;7.68;;
65863;SDS011;52639;51.180;20.460;2022-07-23T20:12:31;11.88;;;8.73;;
65863;SDS011;52639;51.180;20.460;2022-07-23T20:16:39;12.85;;;7.97;;
65863;SDS011;52639;51.180;20.460;2022-07-23T20:20:52;10.38;;;7.63;;
65863;SDS011;52639;51.180;20.460;2022-07-23T20:25:40;9.80;;;7.68;;
65863;SDS011;52639;51.180;20.460;2022-07-23T20:29:44;14.45;;;8.38;;
65863;SDS011;52639;51.180;20.460;2022-07-23T20:33:55;14.65;;;8.38;;
65863;SDS011;52639;51.180;20.460;2022-07-23T20:38:00;10.32;;;8.02;;
65863;SDS011;52639;51.180;20.460;2022-07-23T20:42:05;11.80;;;9.00;;
65863;SDS011;52639;51.180;20.460;2022-07-23T20:46:09;12.23;;;8.32;;
65863;SDS011;52639;51.180;20.460;2022-07-23T20:50:15;10.18;;;7.72;;
65863;SDS011;52639;51.180;20.460;2022-07-23T20:54:20;10.38;;;7.90;;
65863;SDS011;52639;51.180;20.460;2022-07-23T20:58:26;10.48;;;8.05;;
65863;SDS011;52639;51.180;20.460;2022-07-23T21:02:30;12.57;;;8.27;;
65863;SDS011;52639;51.180;20.460;2022-07-23T21:06:36;11.65;;;8.45;;
65863;SDS011;52639;51.180;20.460;2022-07-23T21:10:46;10.75;;;8.68;;
65863;SDS011;52639;51.180;20.460;2022-07-23T21:14:50;11.23;;;7.82;;
65863;SDS011;52639;51.180;20.460;2022-07-23T21:19:04;13.25;;;8.93;;
65863;SDS011;52639;51.180;20.460;2022-07-23T21:23:08;12.10;;;9.23;;
65863;SDS011;52639;51.180;20.460;2022-07-23T21:27:14;13.35;;;9.70;;
65863;SDS011;52639;51.180;20.460;2022-07-23T21:31:19;12.48;;;8.75;;
65863;SDS011;52639;51.180;20.460;2022-07-23T21:35:24;13.10;;;9.55;;
65863;SDS011;52639;51.180;20.460;2022-07-23T21:39:31;12.63;;;9.55;;
65863;SDS011;52639;51.180;20.460;2022-07-23T21:43:39;14.63;;;9.82;;
65863;SDS011;52639;51.180;20.460;2022-07-23T21:47:45;13.38;;;9.93;;
65863;SDS011;52639;51.180;20.460;2022-07-23T21:51:49;16.80;;;10.32;;
65863;SDS011;52639;51.180;20.460;2022-07-23T21:55:54;14.95;;;10.75;;
65863;SDS011;52639;51.180;20.460;2022-07-23T21:59:58;14.38;;;11.00;;
65863;SDS011;52639;51.180;20.460;2022-07-23T22:04:04;14.02;;;10.68;;
65863;SDS011;52639;51.180;20.460;2022-07-23T22:08:07;14.02;;;10.25;;
65863;SDS011;52639;51.180;20.460;2022-07-23T22:12:11;16.98;;;11.75;;
65863;SDS011;52639;51.180;20.460;2022-07-23T22:16:14;14.07;;;10.95;;
65863;SDS011;52639;51.180;20.460;2022-07-23T22:20:18;14.02;;;10.43;;
65863;SDS011;52639;51.180;20.460;2022-07-23T22:24:23;14.25;;;11.27;;
65863;SDS011;52639;51.180;20.460;2022-07-23T22:28:27;16.17;;;10.88;;
65863;SDS011;52639;51.180;20.460;2022-07-23T22:32:30;16.63;;;11.40;;
65863;SDS011;52639;51.180;20.460;2022-07-23T22:36:35;19.08;;;11.60;;
65863;SDS011;52639;51.180;20.460;2022-07-23T22:40:38;16.52;;;11.77;;
65863;SDS011;52639;51.180;20.460;2022-07-23T22:44:41;16.27;;;11.85;;
65863;SDS011;52639;51.180;20.460;2022-07-23T22:48:44;16.27;;;12.13;;
65863;SDS011;52639;51.180;20.460;2022-07-23T22:52:48;14.30;;;11.27;;
65863;SDS011;52639;51.180;20.460;2022-07-23T22:56:51;17.02;;;11.68;;
65863;SDS011;52639;51.180;20.460;2022-07-23T23:00:53;14.65;;;11.45;;
65863;SDS011;52639;51.180;20.460;2022-07-23T23:04:56;16.17;;;11.38;;
65863;SDS011;52639;51.180;20.460;2022-07-23T23:09:00;17.38;;;12.65;;
65863;SDS011;52639;51.180;20.460;2022-07-23T23:13:03;16.27;;;12.30;;
65863;SDS011;52639;51.180;20.460;2022-07-23T23:17:06;17.08;;;11.63;;
65863;SDS011;52639;51.180;20.460;2022-07-23T23:21:09;16.35;;;11.88;;
65863;SDS011;52639;51.180;20.460;2022-07-23T23:25:13;16.27;;;11.70;;
65863;SDS011;52639;51.180;20.460;2022-07-23T23:29:16;16.13;;;11.18;;
65863;SDS011;52639;51.180;20.460;2022-07-23T23:33:18;15.18;;;11.43;;
65863;SDS011;52639;51.180;20.460;2022-07-23T23:37:21;14.95;;;11.75;;
65863;SDS011;52639;51.180;20.460;2022-07-23T23:41:26;15.10;;;11.75;;
65863;SDS011;52639;51.180;20.460;2022-07-23T23:45:30;14.60;;;11.80;;
65863;SDS011;52639;51.180;20.460;2022-07-23T23:49:33;16.02;;;11.50;;
65863;SDS011;52639;51.180;20.460;2022-07-23T23:53:36;16.55;;;12.18;;
65863;SDS011;52639;51.180;20.460;2022-07-23T23:57:41;15.93;;;11.77;;
